Forlì Airport LIPK

Flugplatz Daten

Name: Forlì Airport

Ident: LIPK

Lat: 44,19480133

Long: 12,07009983

Platzhöhe: 97 ft

IataCode: FRL

City: Forlì

Metar

2022/08/13 17:50
LIPK 131750Z 03005KT CAVOK 26/09 Q1012

Taf

2022/08/13 18:00
TAF LIPK 131700Z 1318/1418 VRB05KT CAVOK
BECMG 1410/1412 11012KT
Gewünschte Webcam nicht vorhanden? Dann fügen Sie eine hinzu. Sie wird dann so schnell wie möglich freigeschaltet
Url: Title: